createdAt,value
2022-12-11T00:02:10.285Z,0.92
2022-12-11T00:04:36.972Z,0.94
2022-12-11T00:07:03.598Z,0.92
2022-12-11T00:09:30.170Z,0.85
2022-12-11T00:11:56.727Z,0.85
2022-12-11T00:14:23.353Z,0.90
2022-12-11T00:16:50.066Z,0.92
2022-12-11T00:19:16.807Z,0.91
2022-12-11T00:21:43.371Z,0.87
2022-12-11T00:24:09.966Z,0.83
2022-12-11T00:26:36.538Z,0.94
2022-12-11T00:29:03.178Z,0.88
2022-12-11T00:31:29.785Z,0.86
2022-12-11T00:33:56.395Z,0.78
2022-12-11T00:36:24.791Z,0.87
2022-12-11T00:38:51.769Z,0.94
2022-12-11T00:41:18.725Z,1.00
2022-12-11T00:43:45.273Z,1.16
2022-12-11T00:46:11.951Z,1.16
2022-12-11T00:48:38.767Z,1.16
2022-12-11T00:51:05.832Z,1.04
2022-12-11T00:53:32.351Z,1.01
2022-12-11T00:55:58.929Z,0.85
2022-12-11T00:58:25.488Z,0.92
2022-12-11T01:00:52.114Z,0.90
2022-12-11T01:03:18.790Z,0.87
2022-12-11T01:05:52.953Z,0.87
2022-12-11T01:08:19.622Z,0.82
2022-12-11T01:10:46.286Z,0.78
2022-12-11T01:13:13.038Z,0.83
2022-12-11T01:15:42.044Z,0.88
2022-12-11T01:18:09.293Z,0.82
2022-12-11T01:20:37.513Z,0.87
2022-12-11T01:23:04.039Z,0.86
2022-12-11T01:25:30.598Z,0.83
2022-12-11T01:27:57.122Z,0.86
2022-12-11T01:30:24.638Z,0.82
2022-12-11T01:32:51.849Z,0.83
2022-12-11T01:35:18.923Z,0.80
2022-12-11T01:37:45.655Z,0.76
2022-12-11T01:40:13.918Z,0.77
2022-12-11T01:42:40.407Z,0.75
2022-12-11T01:45:23.843Z,0.76
2022-12-11T01:47:53.822Z,0.77
2022-12-11T01:50:20.355Z,0.73
2022-12-11T01:52:47.971Z,0.75
2022-12-11T01:55:14.915Z,0.75
2022-12-11T01:57:43.481Z,0.74
2022-12-11T02:00:10.313Z,0.71
2022-12-11T02:02:36.979Z,0.69
2022-12-11T02:05:04.665Z,0.72
2022-12-11T02:07:33.888Z,0.75
2022-12-11T02:10:00.434Z,0.75
2022-12-11T02:12:35.911Z,0.73
2022-12-11T02:15:15.818Z,0.70
2022-12-11T02:18:02.567Z,0.68
2022-12-11T02:20:42.099Z,0.64
2022-12-11T02:23:27.136Z,0.63
2022-12-11T02:25:56.434Z,0.64
2022-12-11T02:28:22.971Z,0.64
2022-12-11T02:30:57.288Z,0.60
2022-12-11T02:33:27.795Z,0.61
2022-12-11T02:35:54.993Z,0.62
2022-12-11T02:38:25.515Z,0.64
2022-12-11T02:40:53.288Z,0.63
2022-12-11T02:43:20.365Z,0.67
2022-12-11T02:45:47.167Z,0.71
2022-12-11T02:48:15.498Z,0.71
2022-12-11T02:50:43.928Z,0.67
2022-12-11T02:53:12.526Z,0.69
2022-12-11T02:55:40.818Z,0.65
2022-12-11T02:58:12.513Z,0.64
2022-12-11T03:00:39.154Z,0.56
2022-12-11T03:03:05.778Z,0.63
2022-12-11T03:05:32.497Z,0.65
2022-12-11T03:07:59.128Z,0.65
2022-12-11T03:10:25.716Z,0.64
2022-12-11T03:12:54.119Z,0.52
2022-12-11T03:15:21.998Z,0.56
2022-12-11T03:18:09.858Z,0.59
2022-12-11T03:20:43.155Z,0.59
2022-12-11T03:23:17.357Z,0.62
2022-12-11T03:25:48.116Z,0.63
2022-12-11T03:28:19.673Z,0.61
2022-12-11T03:30:48.749Z,0.59
2022-12-11T03:33:24.271Z,0.56
2022-12-11T03:35:59.208Z,0.52
2022-12-11T03:38:28.997Z,0.56
2022-12-11T03:40:58.914Z,0.55
2022-12-11T03:43:26.577Z,0.53
2022-12-11T03:45:54.184Z,0.54
2022-12-11T03:48:21.642Z,0.53
2022-12-11T03:50:49.036Z,0.45
2022-12-11T03:53:16.389Z,0.47
2022-12-11T03:55:43.006Z,0.52
2022-12-11T03:58:09.536Z,0.49
2022-12-11T04:00:36.330Z,0.44
2022-12-11T04:03:16.006Z,0.45
2022-12-11T04:05:44.077Z,0.39
2022-12-11T04:08:10.933Z,0.43
2022-12-11T04:10:37.558Z,0.41
2022-12-11T04:13:04.191Z,0.41
2022-12-11T04:15:30.748Z,0.36
2022-12-11T04:18:16.031Z,0.32
2022-12-11T04:21:00.856Z,0.30
2022-12-11T04:23:46.001Z,0.27
2022-12-11T04:26:16.833Z,0.25
2022-12-11T04:28:44.114Z,0.19
2022-12-11T04:31:14.285Z,0.20
2022-12-11T04:33:41.334Z,0.18
2022-12-11T04:36:08.235Z,0.19
2022-12-11T04:38:34.835Z,0.18
2022-12-11T04:41:02.898Z,0.15
2022-12-11T04:43:29.796Z,0.16
2022-12-11T04:46:06.398Z,0.17
2022-12-11T04:48:33.275Z,0.19
2022-12-11T04:50:59.846Z,0.20
2022-12-11T04:53:26.850Z,0.24
2022-12-11T04:55:53.486Z,0.24
2022-12-11T04:58:20.035Z,0.20
2022-12-11T05:00:46.835Z,0.27
2022-12-11T05:03:13.454Z,0.37
2022-12-11T05:05:40.128Z,0.32
2022-12-11T05:08:06.759Z,0.33
2022-12-11T05:10:33.336Z,0.34
2022-12-11T05:12:59.849Z,0.32
2022-12-11T05:15:26.397Z,0.28
2022-12-11T05:17:53.009Z,0.19
2022-12-11T05:20:19.593Z,0.22
2022-12-11T05:22:46.098Z,0.29
2022-12-11T05:25:13.019Z,0.29
2022-12-11T05:27:39.856Z,0.25
2022-12-11T05:30:06.806Z,0.26
2022-12-11T05:32:33.430Z,0.25
2022-12-11T05:34:59.956Z,0.23
2022-12-11T05:37:27.234Z,0.25
2022-12-11T05:39:53.793Z,0.30
2022-12-11T05:42:24.110Z,0.28
2022-12-11T05:44:55.006Z,0.34
2022-12-11T05:47:21.558Z,0.29
2022-12-11T05:49:48.132Z,0.34
2022-12-11T05:52:14.657Z,0.26
2022-12-11T05:54:41.195Z,0.25
2022-12-11T05:57:07.829Z,0.19
2022-12-11T05:59:34.365Z,0.17
2022-12-11T06:02:00.999Z,0.18
2022-12-11T06:04:27.798Z,0.22
2022-12-11T06:06:55.125Z,0.20
2022-12-11T06:09:21.630Z,0.21
2022-12-11T06:11:48.211Z,0.25
2022-12-11T06:14:14.794Z,0.32
2022-12-11T06:16:41.384Z,0.26
2022-12-11T06:19:13.124Z,0.24
2022-12-11T06:21:39.619Z,0.30
2022-12-11T06:24:06.485Z,0.29
2022-12-11T06:26:33.125Z,0.27
2022-12-11T06:28:59.769Z,0.27
2022-12-11T06:31:26.539Z,0.30
2022-12-11T06:33:53.168Z,0.24
2022-12-11T06:36:20.916Z,0.23
2022-12-11T06:38:48.050Z,0.24
2022-12-11T06:41:15.040Z,0.18
2022-12-11T06:43:43.003Z,0.22
2022-12-11T06:46:14.430Z,0.24
2022-12-11T06:48:42.376Z,0.25
2022-12-11T06:51:10.354Z,0.23
2022-12-11T06:53:37.101Z,0.23
2022-12-11T06:56:04.494Z,0.27
2022-12-11T06:58:31.053Z,0.28
2022-12-11T07:00:57.832Z,0.24
2022-12-11T07:03:24.422Z,0.24
2022-12-11T07:05:51.168Z,0.21
2022-12-11T07:08:17.769Z,0.27
2022-12-11T07:10:44.471Z,0.33
2022-12-11T07:13:11.056Z,0.34
2022-12-11T07:15:40.464Z,0.36
2022-12-11T07:18:07.243Z,0.44
2022-12-11T07:20:33.818Z,0.50
2022-12-11T07:23:00.356Z,0.52
2022-12-11T07:25:27.132Z,0.54
2022-12-11T07:27:53.681Z,0.50
2022-12-11T07:30:20.276Z,0.50
2022-12-11T07:32:46.881Z,0.57
2022-12-11T07:35:13.827Z,0.50
2022-12-11T07:37:41.206Z,0.55
2022-12-11T07:40:08.172Z,0.54
2022-12-11T07:42:34.722Z,0.56
2022-12-11T07:45:01.249Z,0.55
2022-12-11T07:47:27.815Z,0.61
2022-12-11T07:49:54.406Z,0.61
2022-12-11T07:52:20.925Z,0.63
2022-12-11T07:54:47.568Z,0.67
2022-12-11T07:57:14.503Z,0.62
2022-12-11T07:59:41.938Z,0.69
2022-12-11T08:02:10.212Z,0.73
2022-12-11T08:04:36.793Z,0.77
2022-12-11T08:07:03.365Z,0.71
2022-12-11T08:09:29.959Z,0.72
2022-12-11T08:11:56.594Z,0.73
2022-12-11T08:14:23.152Z,0.73
2022-12-11T08:16:49.779Z,0.76
2022-12-11T08:19:16.360Z,0.74
2022-12-11T08:21:43.556Z,0.77
2022-12-11T08:24:10.365Z,0.80
2022-12-11T08:26:36.936Z,0.87
2022-12-11T08:29:03.537Z,0.84
2022-12-11T08:31:30.348Z,0.87
2022-12-11T08:33:57.447Z,0.89
2022-12-11T08:36:24.569Z,1.11
2022-12-11T08:38:51.876Z,1.05
2022-12-11T08:41:19.766Z,1.04
2022-12-11T08:43:46.829Z,1.05
2022-12-11T08:46:13.586Z,1.05
2022-12-11T08:48:40.844Z,1.02
2022-12-11T08:51:08.436Z,1.04
2022-12-11T08:53:35.030Z,1.06
2022-12-11T08:56:04.814Z,1.06
2022-12-11T08:58:31.327Z,1.05
2022-12-11T09:00:58.038Z,1.05
2022-12-11T09:03:24.914Z,1.04
2022-12-11T09:05:51.645Z,1.05
2022-12-11T09:08:18.260Z,1.05
2022-12-11T09:10:44.834Z,1.09
2022-12-11T09:13:11.394Z,1.13
2022-12-11T09:15:40.617Z,1.13
2022-12-11T09:18:07.570Z,1.17
2022-12-11T09:20:34.154Z,1.17
2022-12-11T09:23:01.378Z,1.18
2022-12-11T09:25:27.910Z,1.20
2022-12-11T09:27:54.477Z,1.18
2022-12-11T09:30:21.049Z,1.18
2022-12-11T09:32:47.593Z,1.19
2022-12-11T09:35:14.164Z,1.18
2022-12-11T09:37:40.689Z,1.18
2022-12-11T09:40:08.016Z,1.20
2022-12-11T09:42:53.415Z,1.19
2022-12-11T09:45:20.487Z,1.20
2022-12-11T09:47:52.724Z,1.24
2022-12-11T09:50:31.797Z,1.27
2022-12-11T09:53:04.379Z,1.28
2022-12-11T09:55:39.231Z,1.29
2022-12-11T09:58:26.029Z,1.27
2022-12-11T10:00:55.725Z,1.23
2022-12-11T10:03:50.442Z,1.21
2022-12-11T10:06:30.804Z,1.22
2022-12-11T10:09:09.516Z,1.20
2022-12-11T10:11:42.358Z,1.19
2022-12-11T10:14:33.381Z,1.18
2022-12-11T10:17:04.030Z,1.18
2022-12-11T10:19:32.129Z,1.20
2022-12-11T10:22:00.007Z,1.19
2022-12-11T10:25:09.364Z,1.20
2022-12-11T10:27:23.550Z,1.27
2022-12-11T10:30:01.370Z,1.33
2022-12-11T10:32:45.968Z,1.32
2022-12-11T10:35:18.539Z,1.33
2022-12-11T10:37:45.332Z,1.35
2022-12-11T10:40:13.194Z,1.37
2022-12-11T10:42:45.442Z,1.36
2022-12-11T10:45:16.216Z,1.31
2022-12-11T10:47:42.772Z,1.21
2022-12-11T10:50:21.938Z,1.21
2022-12-11T10:52:48.679Z,1.17
2022-12-11T10:55:38.190Z,1.18
2022-12-11T10:58:05.904Z,1.17
2022-12-11T11:00:37.726Z,1.13
2022-12-11T11:03:06.416Z,1.13
2022-12-11T11:05:37.089Z,1.11
2022-12-11T11:08:15.338Z,1.10
2022-12-11T11:10:51.144Z,1.11
2022-12-11T11:13:17.716Z,1.09
2022-12-11T11:15:45.296Z,1.10
2022-12-11T11:18:16.837Z,1.09
2022-12-11T11:20:48.248Z,1.03
2022-12-11T11:23:16.245Z,0.96
2022-12-11T11:25:51.718Z,0.95
2022-12-11T11:28:21.406Z,0.96
2022-12-11T11:31:06.392Z,0.96
2022-12-11T11:33:34.397Z,1.02
2022-12-11T11:36:02.653Z,1.05
2022-12-11T11:42:06.655Z,1.11
2022-12-11T11:44:42.194Z,1.12
2022-12-11T11:47:19.859Z,1.10
2022-12-11T11:49:46.359Z,1.09
2022-12-11T11:52:18.534Z,1.11
2022-12-11T11:54:47.762Z,1.11
2022-12-11T11:57:17.695Z,1.07
2022-12-11T11:59:53.579Z,1.02
2022-12-11T12:02:20.224Z,0.96
2022-12-11T12:04:47.071Z,0.95
2022-12-11T12:07:21.620Z,0.91
2022-12-11T12:09:54.428Z,0.90
2022-12-11T12:12:34.154Z,0.89
2022-12-11T12:15:25.418Z,0.88
2022-12-11T12:18:03.339Z,0.84
2022-12-11T12:20:36.606Z,0.79
2022-12-11T12:23:21.924Z,0.80
2022-12-11T12:25:51.221Z,0.77
2022-12-11T12:28:17.777Z,0.71
2022-12-11T12:30:56.169Z,0.71
2022-12-11T12:33:44.560Z,0.69
2022-12-11T12:36:19.802Z,0.69
2022-12-11T12:39:01.122Z,0.62
2022-12-11T12:41:27.625Z,0.57
2022-12-11T12:44:04.971Z,0.55
2022-12-11T12:46:37.811Z,0.51
2022-12-11T12:49:07.705Z,0.49
2022-12-11T12:51:34.278Z,0.45
2022-12-11T12:54:05.589Z,0.40
2022-12-11T12:56:37.842Z,0.33
2022-12-11T12:59:04.330Z,0.29
2022-12-11T13:01:31.677Z,0.24
2022-12-11T13:04:03.109Z,0.21
2022-12-11T13:06:38.479Z,0.20
2022-12-11T13:09:24.450Z,0.19
2022-12-11T13:11:54.641Z,0.17
2022-12-11T13:14:21.184Z,0.11
2022-12-11T13:16:51.316Z,0.05
2022-12-11T13:19:27.085Z,0.01
2022-12-11T13:22:03.538Z,-0.05
2022-12-11T13:24:33.936Z,-0.05
2022-12-11T13:27:11.128Z,-0.07
2022-12-11T13:29:39.040Z,-0.10
2022-12-11T13:32:17.622Z,-0.13
2022-12-11T13:34:45.300Z,-0.20
2022-12-11T13:37:24.922Z,-0.24
2022-12-11T13:39:51.976Z,-0.26
2022-12-11T13:42:27.319Z,-0.31
2022-12-11T13:44:54.184Z,-0.37
2022-12-11T13:47:21.071Z,-0.37
2022-12-11T13:49:49.375Z,-0.38
2022-12-11T13:52:20.162Z,-0.42
2022-12-11T13:54:47.995Z,-0.42
2022-12-11T13:57:22.327Z,-0.38
2022-12-11T13:59:55.495Z,-0.42
2022-12-11T14:02:25.321Z,-0.47
2022-12-11T14:05:03.022Z,-0.46
2022-12-11T14:07:34.437Z,-0.51
2022-12-11T14:10:05.741Z,-0.53
2022-12-11T14:12:32.863Z,-0.53
2022-12-11T14:15:02.115Z,-0.55
2022-12-11T14:17:30.133Z,-0.55
2022-12-11T14:19:58.225Z,-0.64
2022-12-11T14:22:28.675Z,-0.69
2022-12-11T14:24:56.352Z,-0.73
2022-12-11T14:27:23.691Z,-0.74
2022-12-11T14:29:50.426Z,-0.71
2022-12-11T14:32:19.292Z,-0.66
2022-12-11T14:34:46.502Z,-0.71
2022-12-11T14:37:14.697Z,-0.73
2022-12-11T14:39:44.150Z,-0.76
2022-12-11T14:42:39.354Z,-0.81
2022-12-11T14:45:17.143Z,-0.83
2022-12-11T14:47:44.284Z,-0.89
2022-12-11T14:50:14.136Z,-0.89
2022-12-11T14:52:43.737Z,-0.88
2022-12-11T14:55:16.326Z,-0.91
2022-12-11T14:57:44.672Z,-0.92
2022-12-11T15:00:35.828Z,-0.93
2022-12-11T15:03:07.574Z,-0.88
2022-12-11T15:05:40.519Z,-0.92
2022-12-11T15:08:10.278Z,-0.91
2022-12-11T15:10:39.885Z,-0.95
2022-12-11T15:13:07.496Z,-1.04
2022-12-11T15:15:43.210Z,-1.10
2022-12-11T15:18:17.170Z,-1.12
2022-12-11T15:20:43.771Z,-1.14
2022-12-11T15:23:12.862Z,-1.14
2022-12-11T15:25:49.989Z,-1.15
2022-12-11T15:28:26.372Z,-1.24
2022-12-11T15:31:00.714Z,-1.17
2022-12-11T15:33:33.858Z,-1.13
2022-12-11T15:36:05.264Z,-1.15
2022-12-11T15:38:34.041Z,-1.11
2022-12-11T15:41:01.278Z,-1.11
2022-12-11T15:43:28.990Z,-1.06
2022-12-11T15:45:55.652Z,-1.05
2022-12-11T15:48:22.219Z,-1.00
2022-12-11T15:50:48.836Z,-0.94
2022-12-11T15:53:15.329Z,-0.94
2022-12-11T15:55:41.969Z,-0.91
2022-12-11T15:58:12.199Z,-0.86
2022-12-11T16:00:38.786Z,-0.92
2022-12-11T16:03:05.312Z,-0.95
2022-12-11T16:05:31.801Z,-0.97
2022-12-11T16:08:01.306Z,-1.08
2022-12-11T16:10:27.872Z,-1.18
2022-12-11T16:12:59.870Z,-1.22
2022-12-11T16:15:27.163Z,-1.21
2022-12-11T16:18:03.829Z,-1.31
2022-12-11T16:20:31.113Z,-1.38
2022-12-11T16:22:58.336Z,-1.43
2022-12-11T16:25:25.852Z,-1.50
2022-12-11T16:27:54.828Z,-1.51
2022-12-11T16:30:21.373Z,-1.52
2022-12-11T16:32:47.963Z,-1.48
2022-12-11T16:35:14.671Z,-1.53
2022-12-11T16:37:41.350Z,-1.58
2022-12-11T16:40:08.311Z,-1.57
2022-12-11T16:42:35.210Z,-1.58
2022-12-11T16:45:09.160Z,-1.54
2022-12-11T16:47:35.867Z,-1.48
2022-12-11T16:50:02.453Z,-1.43
2022-12-11T16:52:28.989Z,-1.43
2022-12-11T16:54:57.001Z,-1.37
2022-12-11T16:57:23.514Z,-1.41
2022-12-11T16:59:50.214Z,-1.49
2022-12-11T17:02:16.927Z,-1.48
2022-12-11T17:04:43.458Z,-1.53
2022-12-11T17:07:10.287Z,-1.54
2022-12-11T17:09:36.784Z,-1.51
2022-12-11T17:12:03.809Z,-1.55
2022-12-11T17:14:30.338Z,-1.50
2022-12-11T17:16:56.872Z,-1.43
2022-12-11T17:19:23.564Z,-1.46
2022-12-11T17:21:51.720Z,-1.48
2022-12-11T17:24:18.559Z,-1.45
2022-12-11T17:26:45.210Z,-1.39
2022-12-11T17:29:11.982Z,-1.44
2022-12-11T17:31:38.835Z,-1.44
2022-12-11T17:34:05.472Z,-1.45
2022-12-11T17:36:32.130Z,-1.45
2022-12-11T17:38:58.675Z,-1.45
2022-12-11T17:41:25.410Z,-1.43
2022-12-11T17:43:53.544Z,-1.41
2022-12-11T17:46:20.556Z,-1.44
2022-12-11T17:48:48.532Z,-1.42
2022-12-11T17:51:21.143Z,-1.41
2022-12-11T17:53:47.747Z,-1.43
2022-12-11T17:56:14.361Z,-1.44
2022-12-11T17:58:40.908Z,-1.47
2022-12-11T18:01:08.329Z,-1.42
2022-12-11T18:03:35.308Z,-1.41
2022-12-11T18:06:12.807Z,-1.44
2022-12-11T18:08:39.790Z,-1.45
2022-12-11T18:11:11.027Z,-1.42
2022-12-11T18:13:37.884Z,-1.38
2022-12-11T18:16:06.052Z,-1.37
2022-12-11T18:18:32.801Z,-1.38
2022-12-11T18:20:59.500Z,-1.41
2022-12-11T18:23:26.106Z,-1.48
2022-12-11T18:25:52.649Z,-1.48
2022-12-11T18:28:19.203Z,-1.47
2022-12-11T18:30:46.186Z,-1.46
2022-12-11T18:33:13.346Z,-1.48
2022-12-11T18:35:40.524Z,-1.46
2022-12-11T18:38:07.269Z,-1.47
2022-12-11T18:40:33.747Z,-1.48
2022-12-11T18:43:00.495Z,-1.46
2022-12-11T18:45:27.073Z,-1.47
2022-12-11T18:47:55.720Z,-1.50
2022-12-11T18:50:22.310Z,-1.50
2022-12-11T18:52:52.333Z,-1.57
2022-12-11T18:55:18.877Z,-1.59
2022-12-11T18:57:45.491Z,-1.63
2022-12-11T19:00:12.388Z,-1.67
2022-12-11T19:02:38.911Z,-1.70
2022-12-11T19:05:05.630Z,-1.74
2022-12-11T19:07:32.339Z,-1.78
2022-12-11T19:09:58.895Z,-1.82
2022-12-11T19:12:25.725Z,-1.85
2022-12-11T19:14:52.265Z,-1.89
2022-12-11T19:17:18.778Z,-1.92
2022-12-11T19:19:47.397Z,-1.94
2022-12-11T19:22:15.065Z,-1.90
2022-12-11T19:24:41.587Z,-1.91
2022-12-11T19:27:13.237Z,-1.90
2022-12-11T19:29:40.279Z,-1.93
2022-12-11T19:32:07.096Z,-1.90
2022-12-11T19:34:33.759Z,-1.91
2022-12-11T19:37:00.388Z,-1.83
2022-12-11T19:39:26.998Z,-1.98
2022-12-11T19:41:53.523Z,-2.00
2022-12-11T19:44:20.077Z,-1.99
2022-12-11T19:46:46.723Z,-2.00
2022-12-11T19:49:13.352Z,-1.98
2022-12-11T19:51:41.385Z,-1.97
2022-12-11T19:54:08.851Z,-1.99
2022-12-11T19:56:35.468Z,-2.00
2022-12-11T19:59:02.999Z,-2.07
2022-12-11T20:01:31.167Z,-2.11
2022-12-11T20:03:59.677Z,-2.16
2022-12-11T20:06:30.060Z,-2.21
2022-12-11T20:08:56.674Z,-2.29
2022-12-11T20:11:23.266Z,-2.32
2022-12-11T20:13:50.139Z,-2.41
2022-12-11T20:16:17.740Z,-2.46
2022-12-11T20:18:44.567Z,-2.48
2022-12-11T20:21:14.818Z,-2.55
2022-12-11T20:23:41.547Z,-2.63
2022-12-11T20:26:13.449Z,-2.73
2022-12-11T20:28:40.257Z,-2.70
2022-12-11T20:31:08.108Z,-2.77
2022-12-11T20:33:34.811Z,-2.86
2022-12-11T20:36:01.512Z,-2.86
2022-12-11T20:38:34.091Z,-2.90
2022-12-11T20:41:01.026Z,-2.92
2022-12-11T20:43:27.543Z,-2.84
2022-12-11T20:45:54.165Z,-2.92
2022-12-11T20:48:20.707Z,-3.01
2022-12-11T20:50:47.198Z,-3.00
2022-12-11T20:53:13.706Z,-3.03
2022-12-11T20:55:40.947Z,-3.07
2022-12-11T20:58:07.704Z,-3.06
2022-12-11T21:00:35.430Z,-3.08
2022-12-11T21:03:02.032Z,-3.07
2022-12-11T21:05:29.066Z,-3.06
2022-12-11T21:07:55.655Z,-3.13
2022-12-11T21:10:22.558Z,-3.16
2022-12-11T21:12:49.077Z,-3.14
2022-12-11T21:15:15.568Z,-3.12
2022-12-11T21:17:42.068Z,-3.17
2022-12-11T21:20:08.820Z,-3.16
2022-12-11T21:22:35.379Z,-3.17
2022-12-11T21:25:01.905Z,-3.12
2022-12-11T21:27:28.394Z,-3.12
2022-12-11T21:29:54.912Z,-3.08
2022-12-11T21:32:21.443Z,-3.09
2022-12-11T21:34:49.678Z,-3.22
2022-12-11T21:37:16.320Z,-3.28
2022-12-11T21:39:42.827Z,-3.27
2022-12-11T21:42:09.404Z,-3.22
2022-12-11T21:47:22.433Z,-3.15
2022-12-11T21:49:48.988Z,-3.16
2022-12-11T21:52:15.479Z,-3.17
2022-12-11T21:54:42.684Z,-3.24
2022-12-11T21:57:09.185Z,-3.19
2022-12-11T21:59:35.923Z,-3.19
2022-12-11T22:02:02.457Z,-3.30
2022-12-11T22:04:29.016Z,-3.31
2022-12-11T22:06:55.553Z,-3.25
2022-12-11T22:09:22.058Z,-3.33
2022-12-11T22:11:50.661Z,-3.35
2022-12-11T22:14:20.234Z,-3.31
2022-12-11T22:16:46.773Z,-3.28
2022-12-11T22:19:13.588Z,-3.08
2022-12-11T22:21:40.131Z,-3.19
2022-12-11T22:24:07.192Z,-3.32
2022-12-11T22:26:33.723Z,-3.39
2022-12-11T22:29:00.217Z,-3.43
2022-12-11T22:31:27.676Z,-3.43
2022-12-11T22:33:54.964Z,-3.47
2022-12-11T22:36:22.387Z,-3.48
2022-12-11T22:38:49.131Z,-3.50
2022-12-11T22:41:29.388Z,-3.50
2022-12-11T22:43:56.341Z,-3.48
2022-12-11T22:46:24.258Z,-3.47
2022-12-11T22:48:51.507Z,-3.47
2022-12-11T22:51:18.297Z,-3.44
2022-12-11T22:53:45.087Z,-3.45
2022-12-11T22:56:12.763Z,-3.46
2022-12-11T22:58:39.779Z,-3.44
2022-12-11T23:01:10.932Z,-3.51
2022-12-11T23:03:38.645Z,-3.49
2022-12-11T23:06:06.995Z,-3.53
2022-12-11T23:08:33.796Z,-3.58
2022-12-11T23:11:00.462Z,-3.52
2022-12-11T23:13:26.972Z,-3.50
2022-12-11T23:15:53.457Z,-3.56
2022-12-11T23:18:19.989Z,-3.59
2022-12-11T23:20:46.449Z,-3.53
2022-12-11T23:23:12.918Z,-3.51
2022-12-11T23:25:39.411Z,-3.48
2022-12-11T23:28:05.889Z,-3.45
2022-12-11T23:30:32.419Z,-3.44
2022-12-11T23:32:58.921Z,-3.55
2022-12-11T23:35:25.429Z,-3.65
2022-12-11T23:37:51.978Z,-3.66
2022-12-11T23:40:18.458Z,-3.62
2022-12-11T23:42:45.002Z,-3.38
2022-12-11T23:45:11.903Z,-3.42
2022-12-11T23:47:38.645Z,-3.61
2022-12-11T23:50:05.418Z,-3.62
2022-12-11T23:52:31.907Z,-3.62
2022-12-11T23:54:58.498Z,-3.61
2022-12-11T23:57:25.187Z,-3.60
2022-12-11T23:59:51.717Z,-3.61
